Time;durP1;ratioP1;P1;durP2;ratioP2;P2;SDS_P1;SDS_P2;PMS_P1;PMS_P2;Temp;Humidity;BMP_temperature;BMP_pressure;BME280_temperature;BME280_humidity;BME280_pressure;Samples;Min_cycle;Max_cycle;Signal;HPM_P1;HPM_P2
2021/09/05 00:01:13;;;;;;;36.22;12.27;;;;;;;;;;5037499;28;20091;-86
2021/09/05 00:03:38;;;;;;;31.15;12.30;;;;;;;;;;5038568;28;20025;-86
2021/09/05 00:06:04;;;;;;;32.45;12.48;;;;;;;;;;5038958;28;20446;-87
2021/09/05 00:08:29;;;;;;;33.05;12.23;;;;;;;;;;5041591;28;20476;-87
2021/09/05 00:10:54;;;;;;;29.58;11.95;;;;;;;;;;5039894;28;20103;-87
2021/09/05 00:13:20;;;;;;;40.47;12.57;;;;;;;;;;5040473;28;20088;-87
2021/09/05 00:15:46;;;;;;;32.33;12.77;;;;;;;;;;5040269;28;20028;-87
2021/09/05 00:18:11;;;;;;;35.10;12.35;;;;;;;;;;5040070;28;20108;-86
2021/09/05 00:20:37;;;;;;;35.08;12.82;;;;;;;;;;5040636;28;20049;-86
2021/09/05 00:23:03;;;;;;;27.35;12.27;;;;;;;;;;5039765;28;20010;-87
2021/09/05 00:25:30;;;;;;;34.30;13.30;;;;;;;;;;5040312;28;20021;-87
2021/09/05 00:27:56;;;;;;;39.25;12.88;;;;;;;;;;5039854;28;20022;-87
2021/09/05 00:30:21;;;;;;;38.47;13.20;;;;;;;;;;5041140;28;20109;-87
2021/09/05 00:32:47;;;;;;;40.72;12.85;;;;;;;;;;5040372;28;20029;-86
2021/09/05 00:35:12;;;;;;;29.23;12.73;;;;;;;;;;5040441;28;20029;-87
2021/09/05 00:37:37;;;;;;;34.35;13.27;;;;;;;;;;5044246;28;20021;-86
2021/09/05 00:40:03;;;;;;;32.38;12.30;;;;;;;;;;5025239;28;20043;-87
2021/09/05 00:42:29;;;;;;;33.58;12.70;;;;;;;;;;5043418;28;20022;-87
2021/09/05 00:44:55;;;;;;;33.67;12.98;;;;;;;;;;5043013;28;20036;-87
2021/09/05 00:47:21;;;;;;;33.50;13.40;;;;;;;;;;5043060;28;20491;-86
2021/09/05 00:49:47;;;;;;;29.35;13.55;;;;;;;;;;5024909;28;20026;-88
2021/09/05 00:52:12;;;;;;;44.40;14.30;;;;;;;;;;5043910;28;20017;-87
2021/09/05 00:54:41;;;;;;;39.50;14.10;;;;;;;;;;5043201;28;20392;-87
2021/09/05 00:57:11;;;;;;;38.55;12.98;;;;;;;;;;5042733;28;20017;-87
2021/09/05 00:59:42;;;;;;;40.35;12.73;;;;;;;;;;5025812;28;20017;-85
2021/09/05 01:02:08;;;;;;;33.47;12.73;;;;;;;;;;5025795;28;20049;-86
2021/09/05 01:04:34;;;;;;;31.77;12.82;;;;;;;;;;5035273;28;20013;-87
2021/09/05 01:07:00;;;;;;;35.75;13.90;;;;;;;;;;5029893;28;20029;-87
2021/09/05 01:09:27;;;;;;;32.67;12.60;;;;;;;;;;5027943;28;20017;-87
2021/09/05 01:11:53;;;;;;;32.83;12.38;;;;;;;;;;5044116;28;20032;-87
2021/09/05 01:14:19;;;;;;;35.25;12.75;;;;;;;;;;5027560;28;20032;-86
2021/09/05 01:16:44;;;;;;;30.35;12.55;;;;;;;;;;5043668;28;20021;-86
2021/09/05 01:19:15;;;;;;;35.05;12.13;;;;;;;;;;5043469;28;20028;-87
2021/09/05 01:21:43;;;;;;;34.65;12.45;;;;;;;;;;5044776;28;20030;-86
2021/09/05 01:24:09;;;;;;;38.25;13.38;;;;;;;;;;5043441;28;20041;-86
2021/09/05 01:26:37;;;;;;;42.95;13.95;;;;;;;;;;5043044;28;20033;-87
2021/09/05 01:29:03;;;;;;;29.20;12.43;;;;;;;;;;5042022;28;20534;-86
2021/09/05 01:31:47;;;;;;;32.20;12.77;;;;;;;;;;5041768;28;20105;-87
2021/09/05 01:34:15;;;;;;;31.55;13.07;;;;;;;;;;5042859;28;20033;-87
2021/09/05 01:36:41;;;;;;;35.03;12.13;;;;;;;;;;5044135;28;20028;-86
2021/09/05 01:39:08;;;;;;;40.22;13.05;;;;;;;;;;5043777;28;20025;-86
2021/09/05 01:41:34;;;;;;;37.35;12.82;;;;;;;;;;5041707;28;20021;-87
2021/09/05 01:44:05;;;;;;;33.30;12.80;;;;;;;;;;5042806;28;20032;-87
2021/09/05 01:46:30;;;;;;;30.27;12.38;;;;;;;;;;5042145;28;20089;-87
2021/09/05 01:48:56;;;;;;;29.52;13.10;;;;;;;;;;5043841;28;20484;-86
2021/09/05 01:51:22;;;;;;;37.42;12.43;;;;;;;;;;5026133;28;20056;-86
2021/09/05 01:53:47;;;;;;;36.75;13.30;;;;;;;;;;5024688;28;20025;-86
2021/09/05 01:56:12;;;;;;;30.77;12.95;;;;;;;;;;5041515;28;20061;-86
2021/09/05 01:58:38;;;;;;;32.72;12.70;;;;;;;;;;5041938;28;20022;-86
2021/09/05 02:01:03;;;;;;;30.35;12.40;;;;;;;;;;5042940;28;20025;-86
2021/09/05 02:03:29;;;;;;;35.58;12.43;;;;;;;;;;5042540;28;20017;-86
2021/09/05 02:05:54;;;;;;;29.73;12.77;;;;;;;;;;5041045;28;20077;-87
2021/09/05 02:08:19;;;;;;;32.05;12.73;;;;;;;;;;5041834;28;20042;-87
2021/09/05 02:10:45;;;;;;;37.47;12.10;;;;;;;;;;5043518;28;20021;-86
2021/09/05 02:13:10;;;;;;;29.33;11.05;;;;;;;;;;5045500;28;20017;-86
2021/09/05 02:15:36;;;;;;;34.15;12.30;;;;;;;;;;5056331;28;20053;-86
2021/09/05 02:18:01;;;;;;;30.95;11.60;;;;;;;;;;5041526;28;20042;-86
2021/09/05 02:20:27;;;;;;;33.90;11.82;;;;;;;;;;5042454;28;20473;-86
2021/09/05 02:22:52;;;;;;;30.38;12.27;;;;;;;;;;5022645;28;20079;-87
2021/09/05 02:25:17;;;;;;;37.33;14.40;;;;;;;;;;5040308;28;20112;-87
2021/09/05 02:27:43;;;;;;;32.83;12.43;;;;;;;;;;5024324;28;20025;-87
2021/09/05 02:30:10;;;;;;;36.67;14.20;;;;;;;;;;5024725;28;20026;-87
2021/09/05 02:32:37;;;;;;;32.33;13.50;;;;;;;;;;5041582;28;20507;-86
2021/09/05 02:35:04;;;;;;;39.28;14.55;;;;;;;;;;5040056;28;20056;-87
2021/09/05 02:37:30;;;;;;;33.75;12.38;;;;;;;;;;5022775;28;20021;-87
2021/09/05 02:39:55;;;;;;;30.70;12.35;;;;;;;;;;5023802;28;20021;-86
2021/09/05 02:42:21;;;;;;;32.83;12.63;;;;;;;;;;5042242;28;20428;-87
2021/09/05 02:44:46;;;;;;;33.35;13.75;;;;;;;;;;5039826;28;20017;-87
2021/09/05 02:47:11;;;;;;;25.65;11.95;;;;;;;;;;5039536;28;20477;-86
2021/09/05 02:49:37;;;;;;;42.20;12.25;;;;;;;;;;5039361;28;20031;-86
2021/09/05 02:52:02;;;;;;;27.65;12.43;;;;;;;;;;5039112;28;20040;-87
2021/09/05 02:54:28;;;;;;;35.33;13.65;;;;;;;;;;5039618;28;20089;-86
2021/09/05 02:56:53;;;;;;;32.08;12.60;;;;;;;;;;5039342;28;20165;-86
2021/09/05 02:59:18;;;;;;;39.47;12.68;;;;;;;;;;5039054;28;20085;-86
2021/09/05 03:01:43;;;;;;;32.28;13.13;;;;;;;;;;5040902;28;20084;-87
2021/09/05 03:04:09;;;;;;;40.53;13.60;;;;;;;;;;5040603;28;20029;-86
2021/09/05 03:06:36;;;;;;;31.92;11.27;;;;;;;;;;5023117;28;20072;-86
2021/09/05 03:09:01;;;;;;;31.90;12.23;;;;;;;;;;5040322;28;20037;-86
2021/09/05 03:11:27;;;;;;;34.55;12.90;;;;;;;;;;5039710;28;20377;-86
2021/09/05 03:13:52;;;;;;;31.00;12.48;;;;;;;;;;5020678;28;20041;-87
2021/09/05 03:16:17;;;;;;;31.42;11.90;;;;;;;;;;5040025;28;20033;-87
2021/09/05 03:18:43;;;;;;;31.15;13.55;;;;;;;;;;5039352;28;20036;-87
2021/09/05 03:21:08;;;;;;;33.53;12.85;;;;;;;;;;5039395;28;20060;-86
2021/09/05 03:23:33;;;;;;;37.10;16.30;;;;;;;;;;5022254;28;20029;-87
2021/09/05 03:25:59;;;;;;;42.70;15.73;;;;;;;;;;5039835;28;20025;-87
2021/09/05 03:28:24;;;;;;;38.83;15.45;;;;;;;;;;5038643;28;20071;-87
2021/09/05 03:30:49;;;;;;;39.35;15.75;;;;;;;;;;5020020;28;20028;-86
2021/09/05 03:33:15;;;;;;;43.50;16.17;;;;;;;;;;5037594;28;20476;-86
2021/09/05 03:35:40;;;;;;;36.33;15.88;;;;;;;;;;5038433;28;20021;-87
2021/09/05 03:38:06;;;;;;;37.17;14.60;;;;;;;;;;5021262;28;20026;-87
2021/09/05 03:40:31;;;;;;;36.47;13.73;;;;;;;;;;5037893;28;20484;-87
2021/09/05 03:42:56;;;;;;;32.50;13.95;;;;;;;;;;5038240;28;20033;-87
2021/09/05 03:45:21;;;;;;;33.40;13.60;;;;;;;;;;5037798;28;20044;-87
2021/09/05 03:47:47;;;;;;;35.80;12.23;;;;;;;;;;5037609;28;20025;-87
2021/09/05 03:50:12;;;;;;;35.42;12.68;;;;;;;;;;5038389;28;20073;-86
2021/09/05 03:52:38;;;;;;;32.78;12.18;;;;;;;;;;5039200;28;20105;-87
2021/09/05 03:55:05;;;;;;;36.05;12.68;;;;;;;;;;5040348;28;20085;-87
2021/09/05 03:57:31;;;;;;;37.42;12.52;;;;;;;;;;5038998;28;20026;-87
2021/09/05 03:59:56;;;;;;;34.58;12.80;;;;;;;;;;5038348;28;20021;-87
2021/09/05 04:02:21;;;;;;;35.38;13.32;;;;;;;;;;5038664;28;20032;-87
2021/09/05 04:04:47;;;;;;;32.20;12.45;;;;;;;;;;5020520;28;20027;-87
2021/09/05 04:07:16;;;;;;;31.85;12.95;;;;;;;;;;5038578;28;20033;-87
2021/09/05 04:12:25;;;;;;;41.85;14.95;;;;;;;;;;5042730;28;20048;-87
2021/09/05 04:14:50;;;;;;;34.83;15.45;;;;;;;;;;5041696;28;20033;-86
2021/09/05 04:17:16;;;;;;;36.38;15.35;;;;;;;;;;5023708;28;20021;-87
2021/09/05 04:19:41;;;;;;;41.65;15.57;;;;;;;;;;5023126;28;20070;-87
2021/09/05 04:22:06;;;;;;;41.88;17.80;;;;;;;;;;5040474;28;20077;-87
2021/09/05 04:24:32;;;;;;;42.38;19.27;;;;;;;;;;5041984;28;20025;-87
2021/09/05 04:26:57;;;;;;;44.67;21.15;;;;;;;;;;5026544;28;20040;-87
2021/09/05 04:29:23;;;;;;;45.28;19.35;;;;;;;;;;5047786;28;20025;-86
2021/09/05 04:31:48;;;;;;;44.67;17.65;;;;;;;;;;5024527;28;20400;-87
2021/09/05 04:34:14;;;;;;;43.75;18.42;;;;;;;;;;5040343;28;20556;-86
2021/09/05 04:36:39;;;;;;;47.95;17.92;;;;;;;;;;5040225;28;20033;-86
2021/09/05 04:39:08;;;;;;;43.58;18.40;;;;;;;;;;5041178;28;20086;-87
2021/09/05 04:41:33;;;;;;;41.10;18.85;;;;;;;;;;5041910;28;20021;-87
2021/09/05 04:43:58;;;;;;;40.90;20.55;;;;;;;;;;5023658;28;20397;-86
2021/09/05 04:46:24;;;;;;;36.25;19.77;;;;;;;;;;5023265;28;20064;-86
2021/09/05 04:48:49;;;;;;;51.45;20.73;;;;;;;;;;5023135;28;20112;-86
2021/09/05 04:51:14;;;;;;;55.45;23.38;;;;;;;;;;5024076;28;20464;-87
2021/09/05 04:53:40;;;;;;;44.95;19.02;;;;;;;;;;5028582;28;20048;-86
2021/09/05 04:56:06;;;;;;;38.50;19.02;;;;;;;;;;5024773;28;20032;-87
2021/09/05 04:58:31;;;;;;;37.92;16.60;;;;;;;;;;5023245;28;20085;-86
2021/09/05 05:00:56;;;;;;;34.50;14.48;;;;;;;;;;5047151;28;20040;-87
2021/09/05 05:03:22;;;;;;;39.17;14.02;;;;;;;;;;5023743;28;20034;-87
2021/09/05 05:05:47;;;;;;;30.50;12.80;;;;;;;;;;5023346;28;20163;-86
2021/09/05 05:08:12;;;;;;;32.10;11.85;;;;;;;;;;5024082;28;20021;-87
2021/09/05 05:10:37;;;;;;;32.95;13.05;;;;;;;;;;5041311;28;20109;-87
2021/09/05 05:13:03;;;;;;;39.30;14.45;;;;;;;;;;5040950;28;20060;-87
2021/09/05 05:15:28;;;;;;;37.92;14.57;;;;;;;;;;5040611;28;20047;-87
2021/09/05 05:17:54;;;;;;;37.53;13.10;;;;;;;;;;5023061;28;20029;-87
2021/09/05 05:20:19;;;;;;;37.00;13.77;;;;;;;;;;5040220;28;20060;-87
2021/09/05 05:22:46;;;;;;;32.17;12.88;;;;;;;;;;5039570;28;20033;-86
2021/09/05 05:25:12;;;;;;;42.20;15.60;;;;;;;;;;5040676;28;20025;-87
2021/09/05 05:27:37;;;;;;;39.55;14.32;;;;;;;;;;5039844;28;20480;-86
2021/09/05 05:30:04;;;;;;;33.40;13.43;;;;;;;;;;5040453;28;20108;-87
2021/09/05 05:32:29;;;;;;;35.70;14.20;;;;;;;;;;5039416;28;20021;-87
2021/09/05 05:34:55;;;;;;;37.17;16.10;;;;;;;;;;5022310;28;20037;-87
2021/09/05 05:37:20;;;;;;;48.55;18.05;;;;;;;;;;5022119;28;20029;-86
2021/09/05 05:39:45;;;;;;;44.60;17.80;;;;;;;;;;5022568;28;20060;-87
2021/09/05 05:42:11;;;;;;;45.10;18.35;;;;;;;;;;5021211;28;20029;-86
2021/09/05 05:44:36;;;;;;;43.33;17.00;;;;;;;;;;5021095;28;20029;-86
2021/09/05 05:47:01;;;;;;;43.40;16.90;;;;;;;;;;5022041;28;20116;-86
2021/09/05 05:49:27;;;;;;;43.17;16.42;;;;;;;;;;5021943;28;20120;-87
2021/09/05 05:51:52;;;;;;;39.53;15.48;;;;;;;;;;5022358;28;20488;-86
2021/09/05 05:54:18;;;;;;;38.03;14.20;;;;;;;;;;5022102;28;20025;-87
2021/09/05 05:56:43;;;;;;;35.92;14.95;;;;;;;;;;5020624;28;20025;-86
2021/09/05 05:59:09;;;;;;;39.78;15.82;;;;;;;;;;5020187;28;20033;-86
2021/09/05 06:01:36;;;;;;;43.20;16.13;;;;;;;;;;5019485;28;20026;-86
2021/09/05 06:04:01;;;;;;;43.28;16.00;;;;;;;;;;5019328;28;20485;-86
2021/09/05 06:06:28;;;;;;;39.85;14.20;;;;;;;;;;5019708;28;20052;-86
2021/09/05 06:08:53;;;;;;;42.42;15.30;;;;;;;;;;5038009;28;20018;-86
2021/09/05 06:11:18;;;;;;;46.58;15.77;;;;;;;;;;5041162;28;20033;-86
2021/09/05 06:13:44;;;;;;;42.97;16.30;;;;;;;;;;5022670;28;20018;-86
2021/09/05 06:16:09;;;;;;;42.08;15.23;;;;;;;;;;5020755;28;20060;-86
2021/09/05 06:18:34;;;;;;;41.03;15.55;;;;;;;;;;5041223;28;20467;-87
2021/09/05 06:21:00;;;;;;;39.42;14.63;;;;;;;;;;5021318;28;20424;-87
2021/09/05 06:23:25;;;;;;;49.25;15.48;;;;;;;;;;5037658;28;20484;-86
2021/09/05 06:25:50;;;;;;;33.63;14.38;;;;;;;;;;5021227;28;20457;-86
2021/09/05 06:28:16;;;;;;;38.55;15.55;;;;;;;;;;5019622;28;20029;-87
2021/09/05 06:30:41;;;;;;;36.17;13.25;;;;;;;;;;5019949;28;20110;-87
2021/09/05 06:33:07;;;;;;;34.17;14.50;;;;;;;;;;5019249;28;20023;-86
2021/09/05 06:35:32;;;;;;;40.40;15.32;;;;;;;;;;5038081;28;20033;-86
2021/09/05 06:37:58;;;;;;;32.63;13.73;;;;;;;;;;5019691;28;20025;-87
2021/09/05 06:40:23;;;;;;;31.88;13.90;;;;;;;;;;5019609;28;20033;-86
2021/09/05 06:42:48;;;;;;;45.35;15.73;;;;;;;;;;5037489;28;20432;-87
2021/09/05 06:45:14;;;;;;;39.78;14.57;;;;;;;;;;5020095;28;20033;-87
2021/09/05 06:47:39;;;;;;;37.58;14.25;;;;;;;;;;5019805;28;20135;-87
2021/09/05 06:50:05;;;;;;;40.20;14.02;;;;;;;;;;5036875;28;20045;-87
2021/09/05 06:52:30;;;;;;;37.80;14.25;;;;;;;;;;5037534;28;20056;-86
2021/09/05 06:54:57;;;;;;;37.97;14.25;;;;;;;;;;5019452;28;20033;-87
2021/09/05 06:57:22;;;;;;;45.45;17.00;;;;;;;;;;5019564;28;20079;-86
2021/09/05 06:59:48;;;;;;;37.28;14.23;;;;;;;;;;5019310;28;20025;-86
2021/09/05 07:02:17;;;;;;;38.83;15.65;;;;;;;;;;5039416;28;20017;-87
2021/09/05 07:04:42;;;;;;;41.15;16.00;;;;;;;;;;5058005;28;20045;-87
2021/09/05 07:07:08;;;;;;;36.92;14.23;;;;;;;;;;5022154;28;20033;-86
2021/09/05 07:09:33;;;;;;;35.28;15.45;;;;;;;;;;5019905;28;20025;-86
2021/09/05 07:11:59;;;;;;;34.08;13.75;;;;;;;;;;5036862;28;20052;-85
2021/09/05 07:14:24;;;;;;;35.35;13.45;;;;;;;;;;5018635;28;20024;-85
2021/09/05 07:16:50;;;;;;;34.53;13.65;;;;;;;;;;5037218;28;20021;-85
2021/09/05 07:19:15;;;;;;;37.85;14.27;;;;;;;;;;5017874;28;20089;-85
2021/09/05 07:21:40;;;;;;;37.67;15.13;;;;;;;;;;5017971;28;20041;-85
2021/09/05 07:24:06;;;;;;;37.10;14.30;;;;;;;;;;5037092;28;20108;-86
2021/09/05 07:26:31;;;;;;;30.90;13.43;;;;;;;;;;5021277;28;20037;-85
2021/09/05 07:28:57;;;;;;;33.72;14.15;;;;;;;;;;5027060;28;20093;-85
2021/09/05 07:31:23;;;;;;;30.55;13.63;;;;;;;;;;5030807;28;20044;-85
2021/09/05 07:33:48;;;;;;;31.33;13.77;;;;;;;;;;5041363;28;20400;-85
2021/09/05 07:36:13;;;;;;;40.55;13.48;;;;;;;;;;5021450;28;20021;-86
2021/09/05 07:38:39;;;;;;;34.45;13.57;;;;;;;;;;5037032;28;20031;-85
2021/09/05 07:41:04;;;;;;;30.45;12.75;;;;;;;;;;5037133;28;20506;-85
2021/09/05 07:43:29;;;;;;;33.55;12.88;;;;;;;;;;5019112;28;20398;-84
2021/09/05 07:45:55;;;;;;;35.42;14.73;;;;;;;;;;5019342;28;20119;-85
2021/09/05 07:48:20;;;;;;;35.60;14.10;;;;;;;;;;5028568;28;20392;-85
2021/09/05 07:50:48;;;;;;;34.10;13.98;;;;;;;;;;5021465;28;20522;-85
2021/09/05 07:53:14;;;;;;;35.85;13.40;;;;;;;;;;5021419;28;20476;-85
2021/09/05 07:55:39;;;;;;;32.75;14.35;;;;;;;;;;5037038;28;20032;-85
2021/09/05 07:58:04;;;;;;;40.95;14.77;;;;;;;;;;5019519;28;20033;-85
2021/09/05 08:00:30;;;;;;;30.35;13.05;;;;;;;;;;5019175;28;20032;-84
2021/09/05 08:02:55;;;;;;;29.65;13.10;;;;;;;;;;5018879;28;20036;-86
2021/09/05 08:05:21;;;;;;;38.17;13.32;;;;;;;;;;5018736;28;20037;-85
2021/09/05 08:07:46;;;;;;;33.13;12.68;;;;;;;;;;5018451;28;20025;-85
2021/09/05 08:10:11;;;;;;;35.22;12.75;;;;;;;;;;5018130;28;20025;-86
2021/09/05 08:12:37;;;;;;;35.90;12.65;;;;;;;;;;5019188;28;20059;-85
2021/09/05 08:15:02;;;;;;;32.72;13.57;;;;;;;;;;5020541;28;20033;-84
2021/09/05 08:17:28;;;;;;;32.78;12.73;;;;;;;;;;5036281;28;20033;-85
2021/09/05 08:19:53;;;;;;;29.75;13.25;;;;;;;;;;5019003;28;20498;-85
2021/09/05 08:22:18;;;;;;;36.67;13.05;;;;;;;;;;5036512;28;20026;-85
2021/09/05 08:24:44;;;;;;;38.08;13.50;;;;;;;;;;5020177;28;20012;-85
2021/09/05 08:27:09;;;;;;;31.67;12.73;;;;;;;;;;5022962;28;20080;-86
2021/09/05 08:29:35;;;;;;;37.65;13.23;;;;;;;;;;5020545;28;20179;-86
2021/09/05 08:32:01;;;;;;;35.35;13.10;;;;;;;;;;5018216;28;20080;-85
2021/09/05 08:34:26;;;;;;;35.08;13.45;;;;;;;;;;5019482;28;20021;-85
2021/09/05 08:36:51;;;;;;;33.90;13.32;;;;;;;;;;5036126;28;20033;-85
2021/09/05 08:39:17;;;;;;;38.33;13.70;;;;;;;;;;5037335;28;20030;-85
2021/09/05 08:41:43;;;;;;;28.50;12.80;;;;;;;;;;5018153;28;20406;-85
2021/09/05 08:44:09;;;;;;;36.88;13.73;;;;;;;;;;5036173;28;20080;-85
2021/09/05 08:46:35;;;;;;;32.38;13.57;;;;;;;;;;5018241;28;20021;-85
2021/09/05 08:49:03;;;;;;;31.15;12.82;;;;;;;;;;5036291;28;20485;-84
2021/09/05 08:51:30;;;;;;;32.05;13.85;;;;;;;;;;5017655;28;20063;-84
2021/09/05 08:53:55;;;;;;;33.55;14.15;;;;;;;;;;5017341;28;20033;-84
2021/09/05 08:56:21;;;;;;;41.63;14.25;;;;;;;;;;5021109;28;20029;-84
2021/09/05 08:58:46;;;;;;;36.17;12.88;;;;;;;;;;5022421;28;20021;-84
2021/09/05 09:01:21;;;;;;;35.00;13.05;;;;;;;;;;5022663;28;20388;-85
2021/09/05 09:03:47;;;;;;;35.60;13.68;;;;;;;;;;5040041;28;20026;-85
2021/09/05 09:06:19;;;;;;;34.85;13.82;;;;;;;;;;5021350;28;20032;-85
2021/09/05 09:08:53;;;;;;;;;;;;;;;;;;5038947;28;20037;-85
2021/09/05 09:11:18;;;;;;;35.50;14.02;;;;;;;;;;5021433;28;19916;-84
2021/09/05 09:13:44;;;;;;;33.38;13.02;;;;;;;;;;5038696;28;20013;-85
2021/09/05 09:16:10;;;;;;;34.55;13.40;;;;;;;;;;5038787;28;20029;-84
2021/09/05 09:18:37;;;;;;;30.73;12.98;;;;;;;;;;5038518;28;20090;-85
2021/09/05 09:21:09;;;;;;;30.23;12.63;;;;;;;;;;5039154;28;20025;-85
2021/09/05 09:23:36;;;;;;;32.38;14.38;;;;;;;;;;5038374;28;20037;-84
2021/09/05 09:26:01;;;;;;;35.28;14.27;;;;;;;;;;5039453;28;20053;-85
2021/09/05 09:28:35;;;;;;;37.72;14.77;;;;;;;;;;5021192;28;20033;-84
2021/09/05 09:31:21;;;;;;;30.70;13.18;;;;;;;;;;5021002;28;20116;-85
2021/09/05 09:33:57;;;;;;;31.92;12.35;;;;;;;;;;5042283;28;20074;-84
2021/09/05 09:36:27;;;;;;;31.42;13.15;;;;;;;;;;5037755;28;20404;-85
2021/09/05 09:39:01;;;;;;;28.02;13.60;;;;;;;;;;5037800;28;20064;-85
2021/09/05 09:41:33;;;;;;;34.13;12.85;;;;;;;;;;5020591;28;20025;-84
2021/09/05 09:44:01;;;;;;;26.15;13.05;;;;;;;;;;5020383;28;20048;-84
2021/09/05 09:46:31;;;;;;;32.38;13.80;;;;;;;;;;5022263;28;20468;-85
2021/09/05 09:49:04;;;;;;;25.75;12.10;;;;;;;;;;5021138;28;20480;-85
2021/09/05 09:51:31;;;;;;;28.35;12.35;;;;;;;;;;5039149;28;20025;-85
2021/09/05 09:53:56;;;;;;;29.65;12.00;;;;;;;;;;5037884;28;20488;-85
2021/09/05 09:56:23;;;;;;;31.08;14.35;;;;;;;;;;5038877;28;20029;-85
2021/09/05 09:58:50;;;;;;;31.08;13.98;;;;;;;;;;5038280;28;20025;-85
2021/09/05 10:01:21;;;;;;;38.25;14.07;;;;;;;;;;5020561;28;20028;-85
2021/09/05 10:03:55;;;;;;;28.35;12.70;;;;;;;;;;5028821;28;20026;-84
2021/09/05 10:06:27;;;;;;;30.00;12.32;;;;;;;;;;5051363;28;20123;-84
2021/09/05 10:09:04;;;;;;;28.52;12.52;;;;;;;;;;5025677;28;20033;-85
2021/09/05 10:11:30;;;;;;;27.98;13.68;;;;;;;;;;5020652;28;20036;-85
2021/09/05 10:13:57;;;;;;;29.73;13.18;;;;;;;;;;5020202;28;20017;-84
2021/09/05 10:16:24;;;;;;;32.85;12.73;;;;;;;;;;5020897;28;20105;-85
2021/09/05 10:18:51;;;;;;;30.80;12.77;;;;;;;;;;5037720;28;20104;-85
2021/09/05 10:21:19;;;;;;;31.45;12.90;;;;;;;;;;5023390;28;20053;-86
2021/09/05 10:23:47;;;;;;;23.42;12.38;;;;;;;;;;5025656;28;20477;-86
2021/09/05 10:26:14;;;;;;;39.95;13.07;;;;;;;;;;5044100;28;20106;-87
2021/09/05 10:28:41;;;;;;;30.67;12.77;;;;;;;;;;5025772;28;20027;-86
2021/09/05 10:31:08;;;;;;;24.80;12.07;;;;;;;;;;5046072;28;20045;-87
2021/09/05 10:33:39;;;;;;;29.58;12.43;;;;;;;;;;5048316;28;20048;-87
2021/09/05 10:36:08;;;;;;;27.02;12.75;;;;;;;;;;5047898;28;20025;-87
2021/09/05 10:38:36;;;;;;;24.98;11.45;;;;;;;;;;5050084;28;20016;-86
2021/09/05 10:41:19;;;;;;;26.45;12.45;;;;;;;;;;5048568;28;20030;-85
2021/09/05 10:43:48;;;;;;;24.17;11.60;;;;;;;;;;5028963;28;20112;-87
2021/09/05 10:46:28;;;;;;;29.70;13.23;;;;;;;;;;5027579;28;20040;-86
2021/09/05 10:48:59;;;;;;;30.70;12.88;;;;;;;;;;5027219;28;20025;-86
2021/09/05 10:51:31;;;;;;;29.85;12.43;;;;;;;;;;5044471;28;20021;-86
2021/09/05 10:54:02;;;;;;;32.05;11.63;;;;;;;;;;5028702;28;20028;-86
2021/09/05 10:56:43;;;;;;;28.27;12.53;;;;;;;;;;5046617;28;20032;-87
2021/09/05 10:59:19;;;;;;;26.60;12.82;;;;;;;;;;5048429;28;20028;-86
2021/09/05 11:01:47;;;;;;;26.88;12.73;;;;;;;;;;5029135;28;20479;-86
2021/09/05 11:04:13;;;;;;;24.80;12.10;;;;;;;;;;5045891;28;20125;-86
2021/09/05 11:06:51;;;;;;;28.80;13.20;;;;;;;;;;5046040;28;20096;-85
2021/09/05 11:11:59;;;;;;;27.42;12.75;;;;;;;;;;5046144;28;20045;-86
2021/09/05 11:14:48;;;;;;;27.45;11.90;;;;;;;;;;5046192;28;20013;-86
2021/09/05 11:17:15;;;;;;;26.10;12.52;;;;;;;;;;5030423;28;20071;-86
2021/09/05 11:19:46;;;;;;;25.45;12.43;;;;;;;;;;5026023;28;20179;-85
2021/09/05 11:22:20;;;;;;;21.60;10.85;;;;;;;;;;5027505;28;20031;-86
2021/09/05 11:24:46;;;;;;;25.75;12.05;;;;;;;;;;5028361;28;20120;-86
2021/09/05 11:27:14;;;;;;;28.65;12.07;;;;;;;;;;5044975;28;20079;-86
2021/09/05 11:29:40;;;;;;;26.80;12.23;;;;;;;;;;5044078;28;20112;-86
2021/09/05 11:32:08;;;;;;;25.23;12.13;;;;;;;;;;5043845;28;20151;-88
2021/09/05 11:34:35;;;;;;;28.17;11.80;;;;;;;;;;5027816;28;20052;-86
2021/09/05 11:37:01;;;;;;;27.45;11.10;;;;;;;;;;5045400;28;20037;-87
2021/09/05 11:39:27;;;;;;;22.92;11.70;;;;;;;;;;5031880;28;20029;-87
2021/09/05 11:42:01;;;;;;;22.35;11.48;;;;;;;;;;5045453;28;20097;-85
2021/09/05 11:44:36;;;;;;;25.20;11.98;;;;;;;;;;5027248;28;20032;-86
2021/09/05 11:47:07;;;;;;;22.83;11.35;;;;;;;;;;5045036;28;20036;-86
2021/09/05 11:49:34;;;;;;;22.90;11.32;;;;;;;;;;5044793;28;20055;-86
2021/09/05 11:52:00;;;;;;;23.15;10.80;;;;;;;;;;5045814;28;20074;-86
2021/09/05 11:54:25;;;;;;;27.88;12.13;;;;;;;;;;5045811;28;20014;-86
2021/09/05 11:56:50;;;;;;;20.00;10.20;;;;;;;;;;5055803;28;20018;-85
2021/09/05 11:59:16;;;;;;;24.02;10.40;;;;;;;;;;5045867;28;20043;-86
2021/09/05 12:01:52;;;;;;;25.00;11.30;;;;;;;;;;5043293;28;20022;-87
2021/09/05 12:04:18;;;;;;;24.80;10.82;;;;;;;;;;5027218;28;20052;-87
2021/09/05 12:06:44;;;;;;;26.55;12.90;;;;;;;;;;5019424;28;20042;-84
2021/09/05 12:09:11;;;;;;;26.85;11.57;;;;;;;;;;5017633;28;20025;-84
2021/09/05 12:12:00;;;;;;;25.25;11.38;;;;;;;;;;5035005;28;20551;-85
2021/09/05 12:14:32;;;;;;;24.15;12.43;;;;;;;;;;5017475;28;20025;-85
2021/09/05 12:16:59;;;;;;;23.70;10.65;;;;;;;;;;5035129;28;20017;-84
2021/09/05 12:19:24;;;;;;;24.92;11.55;;;;;;;;;;5036924;28;20037;-85
2021/09/05 12:21:57;;;;;;;22.50;10.27;;;;;;;;;;5035266;28;20468;-85
2021/09/05 12:24:24;;;;;;;24.60;10.75;;;;;;;;;;5034706;28;20025;-84
2021/09/05 12:26:49;;;;;;;27.58;10.60;;;;;;;;;;5035350;28;20021;-85
2021/09/05 12:29:29;;;;;;;21.70;10.10;;;;;;;;;;5035387;28;20075;-86
2021/09/05 12:32:00;;;;;;;22.38;10.50;;;;;;;;;;5039071;28;20104;-86
2021/09/05 12:34:45;;;;;;;22.15;9.70;;;;;;;;;;5039395;28;20366;-86
2021/09/05 12:37:21;;;;;;;22.17;10.30;;;;;;;;;;5022005;28;20033;-85
2021/09/05 12:39:48;;;;;;;22.05;10.25;;;;;;;;;;5039689;28;20036;-86
2021/09/05 12:42:16;;;;;;;23.60;10.25;;;;;;;;;;5055482;28;20010;-85
2021/09/05 12:44:48;;;;;;;25.38;10.65;;;;;;;;;;5038842;28;20399;-85
2021/09/05 12:47:29;;;;;;;22.42;9.98;;;;;;;;;;5041732;28;20029;-87
2021/09/05 12:49:56;;;;;;;22.70;9.90;;;;;;;;;;5039276;28;20025;-85
2021/09/05 12:52:29;;;;;;;28.65;10.30;;;;;;;;;;5022440;28;20452;-84
2021/09/05 12:54:55;;;;;;;18.38;9.35;;;;;;;;;;5023441;28;20061;-86
2021/09/05 12:57:23;;;;;;;20.88;9.63;;;;;;;;;;5022463;28;20025;-85
2021/09/05 12:59:49;;;;;;;20.35;9.95;;;;;;;;;;5020957;28;20021;-84
2021/09/05 13:02:14;;;;;;;19.90;9.18;;;;;;;;;;5020453;28;20388;-85
2021/09/05 13:04:39;;;;;;;20.58;9.70;;;;;;;;;;5021282;28;20026;-84
2021/09/05 13:07:05;;;;;;;19.00;9.23;;;;;;;;;;5016759;28;20029;-85
2021/09/05 13:09:31;;;;;;;17.83;8.90;;;;;;;;;;5000914;28;20030;-84
2021/09/05 13:11:56;;;;;;;32.80;14.35;;;;;;;;;;5026670;28;20096;-84
2021/09/05 13:14:22;;;;;;;19.60;9.60;;;;;;;;;;5019196;28;20485;-85
2021/09/05 13:16:47;;;;;;;21.10;8.98;;;;;;;;;;5000630;28;20049;-85
2021/09/05 13:19:12;;;;;;;18.83;9.23;;;;;;;;;;5034415;28;20029;-85
2021/09/05 13:21:38;;;;;;;18.73;9.38;;;;;;;;;;5020081;28;20033;-84
2021/09/05 13:24:04;;;;;;;18.33;9.35;;;;;;;;;;5020057;28;20029;-84
2021/09/05 13:26:29;;;;;;;17.98;8.70;;;;;;;;;;5027154;28;20022;-84
2021/09/05 13:28:56;;;;;;;18.52;8.77;;;;;;;;;;5000731;28;20061;-85
2021/09/05 13:31:24;;;;;;;23.98;9.38;;;;;;;;;;5000494;28;20028;-85
2021/09/05 13:33:49;;;;;;;17.13;9.40;;;;;;;;;;5005087;28;20033;-85
2021/09/05 13:36:15;;;;;;;19.05;9.70;;;;;;;;;;5019869;28;20439;-85
2021/09/05 13:38:40;;;;;;;17.95;8.38;;;;;;;;;;5019894;28;20381;-85
2021/09/05 13:41:06;;;;;;;23.75;10.15;;;;;;;;;;5019005;28;20025;-86
2021/09/05 13:43:32;;;;;;;20.65;8.80;;;;;;;;;;5018312;28;20018;-87
2021/09/05 13:45:57;;;;;;;21.67;8.75;;;;;;;;;;5005142;28;20029;-86
2021/09/05 13:48:23;;;;;;;21.02;8.77;;;;;;;;;;5013173;28;20417;-87
2021/09/05 13:50:48;;;;;;;19.73;9.27;;;;;;;;;;5017947;28;20485;-86
2021/09/05 13:53:14;;;;;;;18.33;8.45;;;;;;;;;;5012370;28;20021;-88
2021/09/05 13:55:39;;;;;;;22.10;8.73;;;;;;;;;;5020086;28;20047;-87
2021/09/05 13:58:05;;;;;;;18.35;8.88;;;;;;;;;;5020169;28;20369;-88
2021/09/05 14:00:31;;;;;;;19.40;8.73;;;;;;;;;;5020927;28;20036;-87
2021/09/05 14:02:57;;;;;;;18.10;8.98;;;;;;;;;;5010128;28;20025;-88
2021/09/05 14:05:22;;;;;;;17.60;8.85;;;;;;;;;;5000561;28;20033;-86
2021/09/05 14:07:47;;;;;;;19.13;9.13;;;;;;;;;;5017806;28;20025;-86
2021/09/05 14:10:13;;;;;;;25.92;9.20;;;;;;;;;;5000133;28;20037;-86
2021/09/05 14:12:38;;;;;;;17.65;8.75;;;;;;;;;;5018475;28;20096;-86
2021/09/05 14:15:05;;;;;;;21.17;9.50;;;;;;;;;;5037620;28;20084;-86
2021/09/05 14:17:31;;;;;;;19.33;8.68;;;;;;;;;;5037325;28;20037;-88
2021/09/05 14:19:56;;;;;;;18.88;8.60;;;;;;;;;;5021984;28;20026;-86
2021/09/05 14:22:22;;;;;;;21.13;8.43;;;;;;;;;;5017621;28;20037;-87